sensor_id;sensor_type;location;lat;lon;timestamp;P1;durP1;ratioP1;P2;durP2;ratioP2
39612;SDS011;25303;48.896;13.342;2022-07-29T00:00:03;3.90;;;1.90;;
39612;SDS011;25303;48.896;13.342;2022-07-29T00:02:47;3.90;;;2.10;;
39612;SDS011;25303;48.896;13.342;2022-07-29T00:05:31;3.42;;;1.73;;
39612;SDS011;25303;48.896;13.342;2022-07-29T00:08:14;2.70;;;1.40;;
39612;SDS011;25303;48.896;13.342;2022-07-29T00:10:57;2.80;;;1.70;;
39612;SDS011;25303;48.896;13.342;2022-07-29T00:13:40;2.42;;;1.55;;
39612;SDS011;25303;48.896;13.342;2022-07-29T00:16:31;4.25;;;1.50;;
39612;SDS011;25303;48.896;13.342;2022-07-29T00:19:14;1.50;;;1.17;;
39612;SDS011;25303;48.896;13.342;2022-07-29T00:21:58;2.42;;;1.50;;
39612;SDS011;25303;48.896;13.342;2022-07-29T00:24:41;3.97;;;1.60;;
39612;SDS011;25303;48.896;13.342;2022-07-29T00:27:24;3.53;;;1.75;;
39612;SDS011;25303;48.896;13.342;2022-07-29T00:30:07;2.28;;;1.50;;
39612;SDS011;25303;48.896;13.342;2022-07-29T00:32:50;2.10;;;1.52;;
39612;SDS011;25303;48.896;13.342;2022-07-29T00:35:33;1.80;;;1.60;;
39612;SDS011;25303;48.896;13.342;2022-07-29T00:38:26;2.35;;;1.50;;
39612;SDS011;25303;48.896;13.342;2022-07-29T00:41:09;2.20;;;1.70;;
39612;SDS011;25303;48.896;13.342;2022-07-29T00:43:52;3.40;;;2.00;;
39612;SDS011;25303;48.896;13.342;2022-07-29T00:46:35;2.75;;;1.95;;
39612;SDS011;25303;48.896;13.342;2022-07-29T00:49:18;2.80;;;1.50;;
39612;SDS011;25303;48.896;13.342;2022-07-29T00:52:02;3.33;;;1.80;;
39612;SDS011;25303;48.896;13.342;2022-07-29T00:54:46;2.88;;;1.70;;
39612;SDS011;25303;48.896;13.342;2022-07-29T00:57:29;2.70;;;2.00;;
39612;SDS011;25303;48.896;13.342;2022-07-29T01:00:13;1.85;;;1.40;;
39612;SDS011;25303;48.896;13.342;2022-07-29T01:02:58;2.20;;;1.58;;
39612;SDS011;25303;48.896;13.342;2022-07-29T01:05:43;2.75;;;1.58;;
39612;SDS011;25303;48.896;13.342;2022-07-29T01:08:32;3.13;;;1.48;;
39612;SDS011;25303;48.896;13.342;2022-07-29T01:11:16;2.70;;;1.38;;
39612;SDS011;25303;48.896;13.342;2022-07-29T01:14:00;2.15;;;1.50;;
39612;SDS011;25303;48.896;13.342;2022-07-29T01:16:45;2.72;;;1.67;;
39612;SDS011;25303;48.896;13.342;2022-07-29T01:19:39;3.45;;;1.63;;
39612;SDS011;25303;48.896;13.342;2022-07-29T01:22:35;1.80;;;1.45;;
39612;SDS011;25303;48.896;13.342;2022-07-29T01:25:32;2.53;;;1.60;;
39612;SDS011;25303;48.896;13.342;2022-07-29T01:28:40;2.00;;;1.42;;
39612;SDS011;25303;48.896;13.342;2022-07-29T01:31:33;3.60;;;1.50;;
39612;SDS011;25303;48.896;13.342;2022-07-29T01:34:41;2.05;;;1.30;;
39612;SDS011;25303;48.896;13.342;2022-07-29T01:37:33;3.40;;;1.55;;
39612;SDS011;25303;48.896;13.342;2022-07-29T01:40:23;2.60;;;1.40;;
39612;SDS011;25303;48.896;13.342;2022-07-29T01:43:10;2.70;;;1.50;;
39612;SDS011;25303;48.896;13.342;2022-07-29T01:45:57;2.22;;;1.50;;
39612;SDS011;25303;48.896;13.342;2022-07-29T01:48:45;2.03;;;1.63;;
39612;SDS011;25303;48.896;13.342;2022-07-29T01:51:32;4.78;;;1.65;;
39612;SDS011;25303;48.896;13.342;2022-07-29T01:54:24;2.67;;;1.63;;
39612;SDS011;25303;48.896;13.342;2022-07-29T01:57:13;2.05;;;1.65;;
39612;SDS011;25303;48.896;13.342;2022-07-29T01:59:59;3.55;;;1.67;;
39612;SDS011;25303;48.896;13.342;2022-07-29T02:02:53;2.50;;;1.60;;
39612;SDS011;25303;48.896;13.342;2022-07-29T02:05:39;3.92;;;1.48;;
39612;SDS011;25303;48.896;13.342;2022-07-29T02:08:25;2.42;;;1.58;;
39612;SDS011;25303;48.896;13.342;2022-07-29T02:11:09;1.67;;;1.48;;
39612;SDS011;25303;48.896;13.342;2022-07-29T02:13:53;3.28;;;1.77;;
39612;SDS011;25303;48.896;13.342;2022-07-29T02:16:39;2.63;;;1.67;;
39612;SDS011;25303;48.896;13.342;2022-07-29T02:22:09;2.85;;;1.40;;
39612;SDS011;25303;48.896;13.342;2022-07-29T02:24:54;4.18;;;1.60;;
39612;SDS011;25303;48.896;13.342;2022-07-29T02:27:41;2.63;;;1.70;;
39612;SDS011;25303;48.896;13.342;2022-07-29T02:30:25;3.60;;;1.70;;
39612;SDS011;25303;48.896;13.342;2022-07-29T02:33:10;2.10;;;1.75;;
39612;SDS011;25303;48.896;13.342;2022-07-29T02:35:57;2.22;;;1.70;;
39612;SDS011;25303;48.896;13.342;2022-07-29T02:38:42;2.35;;;1.70;;
39612;SDS011;25303;48.896;13.342;2022-07-29T02:41:40;2.85;;;1.88;;
39612;SDS011;25303;48.896;13.342;2022-07-29T02:44:26;2.15;;;1.70;;
39612;SDS011;25303;48.896;13.342;2022-07-29T02:47:16;2.25;;;1.60;;
39612;SDS011;25303;48.896;13.342;2022-07-29T02:50:04;3.78;;;1.80;;
39612;SDS011;25303;48.896;13.342;2022-07-29T02:52:54;3.17;;;1.60;;
39612;SDS011;25303;48.896;13.342;2022-07-29T02:55:43;5.22;;;1.83;;
39612;SDS011;25303;48.896;13.342;2022-07-29T02:58:31;3.50;;;2.10;;
39612;SDS011;25303;48.896;13.342;2022-07-29T03:01:16;3.30;;;1.98;;
39612;SDS011;25303;48.896;13.342;2022-07-29T03:04:03;2.28;;;1.90;;
39612;SDS011;25303;48.896;13.342;2022-07-29T03:06:47;4.03;;;2.17;;
39612;SDS011;25303;48.896;13.342;2022-07-29T03:12:16;2.13;;;1.60;;
39612;SDS011;25303;48.896;13.342;2022-07-29T03:15:00;3.00;;;1.83;;
39612;SDS011;25303;48.896;13.342;2022-07-29T03:17:44;2.47;;;1.70;;
39612;SDS011;25303;48.896;13.342;2022-07-29T03:20:28;3.15;;;1.65;;
39612;SDS011;25303;48.896;13.342;2022-07-29T03:23:11;2.47;;;1.45;;
39612;SDS011;25303;48.896;13.342;2022-07-29T03:25:55;3.50;;;2.13;;
39612;SDS011;25303;48.896;13.342;2022-07-29T03:28:39;5.13;;;1.80;;
39612;SDS011;25303;48.896;13.342;2022-07-29T03:31:22;2.97;;;2.10;;
39612;SDS011;25303;48.896;13.342;2022-07-29T03:34:05;3.58;;;2.00;;
39612;SDS011;25303;48.896;13.342;2022-07-29T03:36:48;3.72;;;2.22;;
39612;SDS011;25303;48.896;13.342;2022-07-29T03:39:33;2.83;;;1.98;;
39612;SDS011;25303;48.896;13.342;2022-07-29T03:42:21;2.17;;;1.65;;
39612;SDS011;25303;48.896;13.342;2022-07-29T03:45:13;2.97;;;1.73;;
39612;SDS011;25303;48.896;13.342;2022-07-29T03:48:08;2.50;;;1.70;;
39612;SDS011;25303;48.896;13.342;2022-07-29T03:50:55;2.25;;;1.63;;
39612;SDS011;25303;48.896;13.342;2022-07-29T03:53:38;1.50;;;1.40;;
39612;SDS011;25303;48.896;13.342;2022-07-29T03:56:21;3.60;;;1.38;;
39612;SDS011;25303;48.896;13.342;2022-07-29T03:59:07;2.55;;;1.50;;
39612;SDS011;25303;48.896;13.342;2022-07-29T04:01:50;2.13;;;1.40;;
39612;SDS011;25303;48.896;13.342;2022-07-29T04:04:34;4.05;;;1.70;;
39612;SDS011;25303;48.896;13.342;2022-07-29T04:07:18;2.60;;;1.67;;
39612;SDS011;25303;48.896;13.342;2022-07-29T04:10:01;2.88;;;1.70;;
39612;SDS011;25303;48.896;13.342;2022-07-29T04:12:44;2.28;;;1.63;;
39612;SDS011;25303;48.896;13.342;2022-07-29T04:15:28;4.22;;;1.40;;
39612;SDS011;25303;48.896;13.342;2022-07-29T04:18:12;2.90;;;1.70;;
39612;SDS011;25303;48.896;13.342;2022-07-29T04:20:55;2.13;;;1.50;;
39612;SDS011;25303;48.896;13.342;2022-07-29T04:23:40;1.55;;;1.33;;
39612;SDS011;25303;48.896;13.342;2022-07-29T04:26:34;1.85;;;1.38;;
39612;SDS011;25303;48.896;13.342;2022-07-29T04:29:17;2.78;;;1.50;;
39612;SDS011;25303;48.896;13.342;2022-07-29T04:32:02;2.25;;;1.58;;
39612;SDS011;25303;48.896;13.342;2022-07-29T04:37:28;2.67;;;1.45;;
39612;SDS011;25303;48.896;13.342;2022-07-29T04:40:12;3.22;;;1.70;;
39612;SDS011;25303;48.896;13.342;2022-07-29T04:42:55;2.10;;;1.60;;
39612;SDS011;25303;48.896;13.342;2022-07-29T04:45:41;1.80;;;1.38;;
39612;SDS011;25303;48.896;13.342;2022-07-29T04:48:25;3.97;;;1.75;;
39612;SDS011;25303;48.896;13.342;2022-07-29T04:51:09;2.72;;;1.63;;
39612;SDS011;25303;48.896;13.342;2022-07-29T04:53:52;3.08;;;2.20;;
39612;SDS011;25303;48.896;13.342;2022-07-29T04:56:35;3.45;;;2.50;;
39612;SDS011;25303;48.896;13.342;2022-07-29T04:59:18;2.70;;;1.80;;
39612;SDS011;25303;48.896;13.342;2022-07-29T05:02:01;2.90;;;1.83;;
39612;SDS011;25303;48.896;13.342;2022-07-29T05:04:45;6.60;;;2.28;;
39612;SDS011;25303;48.896;13.342;2022-07-29T05:07:28;2.53;;;2.08;;
39612;SDS011;25303;48.896;13.342;2022-07-29T05:10:11;2.38;;;1.90;;
39612;SDS011;25303;48.896;13.342;2022-07-29T05:12:54;4.95;;;1.98;;
39612;SDS011;25303;48.896;13.342;2022-07-29T05:15:37;3.38;;;1.90;;
39612;SDS011;25303;48.896;13.342;2022-07-29T05:18:20;2.10;;;1.75;;
39612;SDS011;25303;48.896;13.342;2022-07-29T05:21:08;3.30;;;1.98;;
39612;SDS011;25303;48.896;13.342;2022-07-29T05:23:51;3.30;;;1.75;;
39612;SDS011;25303;48.896;13.342;2022-07-29T05:26:33;2.67;;;1.63;;
39612;SDS011;25303;48.896;13.342;2022-07-29T05:29:16;2.38;;;1.60;;
39612;SDS011;25303;48.896;13.342;2022-07-29T05:32:19;1.75;;;1.30;;
39612;SDS011;25303;48.896;13.342;2022-07-29T05:35:03;2.33;;;1.73;;
39612;SDS011;25303;48.896;13.342;2022-07-29T05:37:47;2.50;;;1.90;;
39612;SDS011;25303;48.896;13.342;2022-07-29T05:40:30;4.15;;;1.98;;
39612;SDS011;25303;48.896;13.342;2022-07-29T05:43:13;2.03;;;1.80;;
39612;SDS011;25303;48.896;13.342;2022-07-29T05:45:56;3.50;;;1.77;;
39612;SDS011;25303;48.896;13.342;2022-07-29T05:48:40;3.15;;;1.88;;
39612;SDS011;25303;48.896;13.342;2022-07-29T05:51:23;2.65;;;1.88;;
39612;SDS011;25303;48.896;13.342;2022-07-29T05:54:07;1.48;;;1.30;;
39612;SDS011;25303;48.896;13.342;2022-07-29T05:56:50;3.33;;;1.80;;
39612;SDS011;25303;48.896;13.342;2022-07-29T05:59:34;2.33;;;1.73;;
39612;SDS011;25303;48.896;13.342;2022-07-29T06:02:18;2.03;;;1.52;;
39612;SDS011;25303;48.896;13.342;2022-07-29T06:05:01;3.47;;;1.75;;
39612;SDS011;25303;48.896;13.342;2022-07-29T06:07:44;2.80;;;1.92;;
39612;SDS011;25303;48.896;13.342;2022-07-29T06:10:33;3.25;;;1.98;;
39612;SDS011;25303;48.896;13.342;2022-07-29T06:13:17;1.92;;;1.63;;
39612;SDS011;25303;48.896;13.342;2022-07-29T06:16:00;2.58;;;1.77;;
39612;SDS011;25303;48.896;13.342;2022-07-29T06:18:43;2.42;;;1.85;;
39612;SDS011;25303;48.896;13.342;2022-07-29T06:21:26;2.80;;;2.00;;
39612;SDS011;25303;48.896;13.342;2022-07-29T06:24:10;2.83;;;2.10;;
39612;SDS011;25303;48.896;13.342;2022-07-29T06:26:55;2.92;;;2.20;;
39612;SDS011;25303;48.896;13.342;2022-07-29T06:29:38;3.42;;;2.20;;
39612;SDS011;25303;48.896;13.342;2022-07-29T06:32:21;4.40;;;2.60;;
39612;SDS011;25303;48.896;13.342;2022-07-29T06:35:08;4.80;;;2.30;;
39612;SDS011;25303;48.896;13.342;2022-07-29T06:38:11;6.55;;;2.20;;
39612;SDS011;25303;48.896;13.342;2022-07-29T06:41:14;2.80;;;2.00;;
39612;SDS011;25303;48.896;13.342;2022-07-29T06:43:59;2.58;;;1.77;;
39612;SDS011;25303;48.896;13.342;2022-07-29T06:46:42;3.65;;;1.88;;
39612;SDS011;25303;48.896;13.342;2022-07-29T06:49:26;1.92;;;1.65;;
39612;SDS011;25303;48.896;13.342;2022-07-29T06:52:09;2.70;;;2.10;;
39612;SDS011;25303;48.896;13.342;2022-07-29T06:54:52;4.35;;;2.10;;
39612;SDS011;25303;48.896;13.342;2022-07-29T06:57:36;3.25;;;2.28;;
39612;SDS011;25303;48.896;13.342;2022-07-29T07:00:20;4.40;;;2.35;;
39612;SDS011;25303;48.896;13.342;2022-07-29T07:03:03;4.18;;;2.13;;
39612;SDS011;25303;48.896;13.342;2022-07-29T07:05:46;3.78;;;2.20;;
39612;SDS011;25303;48.896;13.342;2022-07-29T07:08:29;4.10;;;2.60;;
39612;SDS011;25303;48.896;13.342;2022-07-29T07:11:12;3.60;;;2.17;;
39612;SDS011;25303;48.896;13.342;2022-07-29T07:13:56;3.45;;;2.30;;
39612;SDS011;25303;48.896;13.342;2022-07-29T07:16:45;3.75;;;2.17;;
39612;SDS011;25303;48.896;13.342;2022-07-29T07:19:33;5.53;;;2.17;;
39612;SDS011;25303;48.896;13.342;2022-07-29T07:22:16;2.10;;;1.90;;
39612;SDS011;25303;48.896;13.342;2022-07-29T07:24:59;2.95;;;1.90;;
39612;SDS011;25303;48.896;13.342;2022-07-29T07:27:42;3.28;;;1.88;;
39612;SDS011;25303;48.896;13.342;2022-07-29T07:30:25;2.78;;;1.83;;
39612;SDS011;25303;48.896;13.342;2022-07-29T07:33:10;2.17;;;1.98;;
39612;SDS011;25303;48.896;13.342;2022-07-29T07:35:54;2.95;;;2.00;;
39612;SDS011;25303;48.896;13.342;2022-07-29T07:38:36;2.65;;;2.13;;
39612;SDS011;25303;48.896;13.342;2022-07-29T07:41:19;2.42;;;1.80;;
39612;SDS011;25303;48.896;13.342;2022-07-29T07:44:33;3.08;;;2.10;;
39612;SDS011;25303;48.896;13.342;2022-07-29T07:47:36;2.78;;;2.20;;
39612;SDS011;25303;48.896;13.342;2022-07-29T07:50:22;3.80;;;2.15;;
39612;SDS011;25303;48.896;13.342;2022-07-29T07:53:05;3.70;;;2.60;;
39612;SDS011;25303;48.896;13.342;2022-07-29T07:55:48;3.13;;;2.40;;
39612;SDS011;25303;48.896;13.342;2022-07-29T07:58:51;3.28;;;1.73;;
39612;SDS011;25303;48.896;13.342;2022-07-29T08:01:34;3.40;;;2.40;;
39612;SDS011;25303;48.896;13.342;2022-07-29T08:04:35;3.03;;;1.98;;
39612;SDS011;25303;48.896;13.342;2022-07-29T08:07:20;3.03;;;2.15;;
39612;SDS011;25303;48.896;13.342;2022-07-29T08:10:03;3.17;;;2.15;;
39612;SDS011;25303;48.896;13.342;2022-07-29T08:12:47;4.07;;;2.00;;
39612;SDS011;25303;48.896;13.342;2022-07-29T08:15:30;3.65;;;2.33;;
39612;SDS011;25303;48.896;13.342;2022-07-29T08:18:13;3.35;;;2.10;;
39612;SDS011;25303;48.896;13.342;2022-07-29T08:20:56;2.88;;;2.13;;
39612;SDS011;25303;48.896;13.342;2022-07-29T08:23:40;5.20;;;2.90;;
39612;SDS011;25303;48.896;13.342;2022-07-29T08:26:34;4.47;;;2.88;;
39612;SDS011;25303;48.896;13.342;2022-07-29T08:29:17;3.58;;;2.83;;
39612;SDS011;25303;48.896;13.342;2022-07-29T08:32:00;4.22;;;2.60;;
39612;SDS011;25303;48.896;13.342;2022-07-29T08:34:43;3.38;;;2.53;;
39612;SDS011;25303;48.896;13.342;2022-07-29T08:37:27;3.37;;;2.67;;
39612;SDS011;25303;48.896;13.342;2022-07-29T08:40:12;2.90;;;2.30;;
39612;SDS011;25303;48.896;13.342;2022-07-29T08:42:55;4.28;;;3.10;;
39612;SDS011;25303;48.896;13.342;2022-07-29T08:45:42;4.65;;;2.83;;
39612;SDS011;25303;48.896;13.342;2022-07-29T08:48:28;4.78;;;2.95;;
39612;SDS011;25303;48.896;13.342;2022-07-29T08:51:12;4.75;;;2.83;;
39612;SDS011;25303;48.896;13.342;2022-07-29T08:53:56;4.25;;;2.55;;
39612;SDS011;25303;48.896;13.342;2022-07-29T08:56:41;4.65;;;2.70;;
39612;SDS011;25303;48.896;13.342;2022-07-29T08:59:25;4.55;;;3.30;;
39612;SDS011;25303;48.896;13.342;2022-07-29T09:02:12;6.28;;;3.35;;
39612;SDS011;25303;48.896;13.342;2022-07-29T09:05:01;3.75;;;3.03;;
39612;SDS011;25303;48.896;13.342;2022-07-29T09:07:44;3.83;;;3.00;;
39612;SDS011;25303;48.896;13.342;2022-07-29T09:10:29;4.07;;;3.03;;
39612;SDS011;25303;48.896;13.342;2022-07-29T09:13:14;4.10;;;3.15;;
39612;SDS011;25303;48.896;13.342;2022-07-29T09:15:57;4.20;;;3.08;;
39612;SDS011;25303;48.896;13.342;2022-07-29T09:18:40;4.32;;;3.22;;
39612;SDS011;25303;48.896;13.342;2022-07-29T09:21:24;4.50;;;3.50;;
39612;SDS011;25303;48.896;13.342;2022-07-29T09:24:25;4.57;;;3.33;;
39612;SDS011;25303;48.896;13.342;2022-07-29T09:27:19;5.20;;;3.47;;
39612;SDS011;25303;48.896;13.342;2022-07-29T09:30:06;5.20;;;3.03;;
39612;SDS011;25303;48.896;13.342;2022-07-29T09:32:55;4.15;;;3.22;;
39612;SDS011;25303;48.896;13.342;2022-07-29T09:35:39;5.47;;;3.13;;
39612;SDS011;25303;48.896;13.342;2022-07-29T09:38:37;4.45;;;2.90;;
39612;SDS011;25303;48.896;13.342;2022-07-29T09:41:19;5.93;;;3.40;;
39612;SDS011;25303;48.896;13.342;2022-07-29T09:44:03;3.72;;;2.75;;
39612;SDS011;25303;48.896;13.342;2022-07-29T09:46:58;6.78;;;3.60;;
39612;SDS011;25303;48.896;13.342;2022-07-29T09:49:51;3.25;;;2.65;;
39612;SDS011;25303;48.896;13.342;2022-07-29T09:52:44;3.70;;;2.83;;
39612;SDS011;25303;48.896;13.342;2022-07-29T09:55:28;4.60;;;3.33;;
39612;SDS011;25303;48.896;13.342;2022-07-29T09:58:14;5.78;;;3.42;;
39612;SDS011;25303;48.896;13.342;2022-07-29T10:00:58;5.70;;;3.08;;
39612;SDS011;25303;48.896;13.342;2022-07-29T10:03:51;3.47;;;2.53;;
39612;SDS011;25303;48.896;13.342;2022-07-29T10:06:35;4.55;;;2.78;;
39612;SDS011;25303;48.896;13.342;2022-07-29T10:09:20;4.05;;;2.35;;
39612;SDS011;25303;48.896;13.342;2022-07-29T10:12:04;4.00;;;2.80;;
39612;SDS011;25303;48.896;13.342;2022-07-29T10:14:48;3.50;;;2.58;;
39612;SDS011;25303;48.896;13.342;2022-07-29T10:17:32;3.05;;;2.40;;
39612;SDS011;25303;48.896;13.342;2022-07-29T10:20:23;3.10;;;2.40;;
39612;SDS011;25303;48.896;13.342;2022-07-29T10:23:07;3.92;;;2.45;;
39612;SDS011;25303;48.896;13.342;2022-07-29T10:28:34;3.30;;;2.28;;
39612;SDS011;25303;48.896;13.342;2022-07-29T10:31:19;3.38;;;2.40;;
39612;SDS011;25303;48.896;13.342;2022-07-29T10:34:11;3.00;;;2.38;;
39612;SDS011;25303;48.896;13.342;2022-07-29T10:37:03;3.22;;;1.90;;
39612;SDS011;25303;48.896;13.342;2022-07-29T10:39:57;3.90;;;2.80;;
39612;SDS011;25303;48.896;13.342;2022-07-29T10:43:14;2.92;;;2.28;;
39612;SDS011;25303;48.896;13.342;2022-07-29T10:46:00;2.47;;;2.00;;
39612;SDS011;25303;48.896;13.342;2022-07-29T10:52:05;2.65;;;1.60;;
39612;SDS011;25303;48.896;13.342;2022-07-29T10:54:49;2.00;;;1.73;;
39612;SDS011;25303;48.896;13.342;2022-07-29T10:57:34;2.42;;;1.92;;
39612;SDS011;25303;48.896;13.342;2022-07-29T11:00:35;3.15;;;2.55;;
39612;SDS011;25303;48.896;13.342;2022-07-29T11:13:12;2.70;;;1.83;;
39612;SDS011;25303;48.896;13.342;2022-07-29T11:15:57;3.08;;;2.05;;
39612;SDS011;25303;48.896;13.342;2022-07-29T11:22:10;2.95;;;2.05;;
39612;SDS011;25303;48.896;13.342;2022-07-29T11:25:14;2.45;;;2.10;;
39612;SDS011;25303;48.896;13.342;2022-07-29T11:28:09;3.30;;;2.70;;
39612;SDS011;25303;48.896;13.342;2022-07-29T11:31:03;3.38;;;2.10;;
39612;SDS011;25303;48.896;13.342;2022-07-29T11:33:48;5.40;;;2.78;;
39612;SDS011;25303;48.896;13.342;2022-07-29T11:36:37;2.78;;;2.08;;
39612;SDS011;25303;48.896;13.342;2022-07-29T11:40:15;3.65;;;2.13;;
39612;SDS011;25303;48.896;13.342;2022-07-29T11:43:01;3.88;;;2.70;;
39612;SDS011;25303;48.896;13.342;2022-07-29T11:46:06;2.13;;;1.90;;
39612;SDS011;25303;48.896;13.342;2022-07-29T11:48:50;2.70;;;2.17;;
39612;SDS011;25303;48.896;13.342;2022-07-29T11:51:34;2.33;;;1.95;;
39612;SDS011;25303;48.896;13.342;2022-07-29T11:54:30;4.40;;;2.35;;
39612;SDS011;25303;48.896;13.342;2022-07-29T11:57:34;3.85;;;2.08;;
39612;SDS011;25303;48.896;13.342;2022-07-29T12:00:23;3.03;;;2.20;;
39612;SDS011;25303;48.896;13.342;2022-07-29T12:03:09;5.07;;;2.45;;
39612;SDS011;25303;48.896;13.342;2022-07-29T12:08:39;3.03;;;2.00;;
39612;SDS011;25303;48.896;13.342;2022-07-29T12:11:24;3.85;;;2.10;;
39612;SDS011;25303;48.896;13.342;2022-07-29T12:14:07;2.35;;;2.00;;
39612;SDS011;25303;48.896;13.342;2022-07-29T12:16:51;2.95;;;2.03;;
39612;SDS011;25303;48.896;13.342;2022-07-29T12:19:41;3.15;;;2.42;;
39612;SDS011;25303;48.896;13.342;2022-07-29T12:22:25;1.98;;;1.70;;
39612;SDS011;25303;48.896;13.342;2022-07-29T12:25:09;2.03;;;1.80;;
39612;SDS011;25303;48.896;13.342;2022-07-29T12:31:12;2.70;;;1.80;;
39612;SDS011;25303;48.896;13.342;2022-07-29T12:34:17;3.45;;;1.70;;
39612;SDS011;25303;48.896;13.342;2022-07-29T12:37:00;3.42;;;1.75;;
39612;SDS011;25303;48.896;13.342;2022-07-29T12:39:43;2.17;;;1.60;;
39612;SDS011;25303;48.896;13.342;2022-07-29T12:42:26;2.38;;;1.70;;
39612;SDS011;25303;48.896;13.342;2022-07-29T12:45:09;1.70;;;1.55;;
39612;SDS011;25303;48.896;13.342;2022-07-29T12:47:52;2.97;;;1.70;;
39612;SDS011;25303;48.896;13.342;2022-07-29T12:50:51;2.10;;;1.90;;
39612;SDS011;25303;48.896;13.342;2022-07-29T12:53:36;2.00;;;1.45;;
39612;SDS011;25303;48.896;13.342;2022-07-29T12:56:19;2.67;;;1.95;;
39612;SDS011;25303;48.896;13.342;2022-07-29T12:59:22;3.97;;;1.85;;
39612;SDS011;25303;48.896;13.342;2022-07-29T13:02:06;2.08;;;1.75;;
39612;SDS011;25303;48.896;13.342;2022-07-29T13:04:54;1.90;;;1.70;;
39612;SDS011;25303;48.896;13.342;2022-07-29T13:07:40;2.50;;;1.52;;
39612;SDS011;25303;48.896;13.342;2022-07-29T13:10:37;2.47;;;1.58;;
39612;SDS011;25303;48.896;13.342;2022-07-29T13:13:20;3.60;;;1.70;;
39612;SDS011;25303;48.896;13.342;2022-07-29T13:16:07;2.70;;;1.40;;
39612;SDS011;25303;48.896;13.342;2022-07-29T13:19:02;1.52;;;1.25;;
39612;SDS011;25303;48.896;13.342;2022-07-29T13:21:49;1.60;;;1.20;;
39612;SDS011;25303;48.896;13.342;2022-07-29T13:24:44;1.25;;;1.00;;
39612;SDS011;25303;48.896;13.342;2022-07-29T13:27:29;2.65;;;1.20;;
39612;SDS011;25303;48.896;13.342;2022-07-29T13:30:13;1.45;;;1.10;;
39612;SDS011;25303;48.896;13.342;2022-07-29T13:32:56;1.70;;;1.13;;
39612;SDS011;25303;48.896;13.342;2022-07-29T13:35:39;1.35;;;1.10;;
39612;SDS011;25303;48.896;13.342;2022-07-29T13:38:22;1.15;;;1.02;;
39612;SDS011;25303;48.896;13.342;2022-07-29T13:41:13;1.00;;;0.90;;
39612;SDS011;25303;48.896;13.342;2022-07-29T13:43:58;1.30;;;1.10;;
39612;SDS011;25303;48.896;13.342;2022-07-29T13:46:41;1.35;;;1.00;;
39612;SDS011;25303;48.896;13.342;2022-07-29T13:49:24;1.63;;;1.00;;
39612;SDS011;25303;48.896;13.342;2022-07-29T13:52:07;1.30;;;1.08;;
39612;SDS011;25303;48.896;13.342;2022-07-29T13:54:50;0.88;;;0.80;;
39612;SDS011;25303;48.896;13.342;2022-07-29T13:57:35;1.80;;;1.00;;
39612;SDS011;25303;48.896;13.342;2022-07-29T14:00:18;1.20;;;0.98;;
39612;SDS011;25303;48.896;13.342;2022-07-29T14:03:01;2.30;;;1.30;;
39612;SDS011;25303;48.896;13.342;2022-07-29T14:05:44;1.30;;;1.00;;
39612;SDS011;25303;48.896;13.342;2022-07-29T14:08:27;2.33;;;1.00;;
39612;SDS011;25303;48.896;13.342;2022-07-29T14:11:10;1.20;;;0.90;;
39612;SDS011;25303;48.896;13.342;2022-07-29T14:13:54;1.25;;;0.90;;
39612;SDS011;25303;48.896;13.342;2022-07-29T14:16:37;1.40;;;1.10;;
39612;SDS011;25303;48.896;13.342;2022-07-29T14:19:29;1.00;;;0.90;;
39612;SDS011;25303;48.896;13.342;2022-07-29T14:22:13;1.45;;;1.10;;
39612;SDS011;25303;48.896;13.342;2022-07-29T14:24:56;1.50;;;1.30;;
39612;SDS011;25303;48.896;13.342;2022-07-29T14:27:55;2.47;;;0.93;;
39612;SDS011;25303;48.896;13.342;2022-07-29T14:30:40;1.33;;;1.00;;
39612;SDS011;25303;48.896;13.342;2022-07-29T14:33:23;1.25;;;1.05;;
39612;SDS011;25303;48.896;13.342;2022-07-29T14:36:06;1.80;;;1.20;;
39612;SDS011;25303;48.896;13.342;2022-07-29T14:38:49;1.73;;;1.10;;
39612;SDS011;25303;48.896;13.342;2022-07-29T14:41:32;1.83;;;1.10;;
39612;SDS011;25303;48.896;13.342;2022-07-29T14:44:15;1.38;;;1.05;;
39612;SDS011;25303;48.896;13.342;2022-07-29T14:46:59;3.30;;;1.20;;
39612;SDS011;25303;48.896;13.342;2022-07-29T14:49:48;1.65;;;1.20;;
39612;SDS011;25303;48.896;13.342;2022-07-29T14:52:31;2.03;;;0.80;;
39612;SDS011;25303;48.896;13.342;2022-07-29T14:55:14;1.10;;;1.00;;
39612;SDS011;25303;48.896;13.342;2022-07-29T14:58:00;1.08;;;0.98;;
39612;SDS011;25303;48.896;13.342;2022-07-29T15:00:53;2.08;;;1.33;;
39612;SDS011;25303;48.896;13.342;2022-07-29T15:03:39;1.48;;;1.13;;
39612;SDS011;25303;48.896;13.342;2022-07-29T15:06:22;2.42;;;1.30;;
39612;SDS011;25303;48.896;13.342;2022-07-29T15:09:05;2.95;;;1.20;;
39612;SDS011;25303;48.896;13.342;2022-07-29T15:11:48;2.08;;;1.27;;
39612;SDS011;25303;48.896;13.342;2022-07-29T15:14:31;3.10;;;1.30;;
39612;SDS011;25303;48.896;13.342;2022-07-29T15:17:14;1.83;;;1.20;;
39612;SDS011;25303;48.896;13.342;2022-07-29T15:19:58;2.22;;;1.20;;
39612;SDS011;25303;48.896;13.342;2022-07-29T15:22:41;2.22;;;1.17;;
39612;SDS011;25303;48.896;13.342;2022-07-29T15:25:25;1.70;;;1.30;;
39612;SDS011;25303;48.896;13.342;2022-07-29T15:28:08;3.13;;;1.25;;
39612;SDS011;25303;48.896;13.342;2022-07-29T15:30:51;1.20;;;1.10;;
39612;SDS011;25303;48.896;13.342;2022-07-29T15:33:37;1.20;;;1.10;;
39612;SDS011;25303;48.896;13.342;2022-07-29T15:36:21;1.20;;;1.10;;
39612;SDS011;25303;48.896;13.342;2022-07-29T15:39:24;1.13;;;0.93;;
39612;SDS011;25303;48.896;13.342;2022-07-29T15:42:07;1.77;;;1.10;;
39612;SDS011;25303;48.896;13.342;2022-07-29T15:44:50;2.58;;;1.30;;
39612;SDS011;25303;48.896;13.342;2022-07-29T15:47:34;1.65;;;1.10;;
39612;SDS011;25303;48.896;13.342;2022-07-29T15:50:17;1.00;;;0.90;;
39612;SDS011;25303;48.896;13.342;2022-07-29T15:53:02;1.33;;;0.93;;
39612;SDS011;25303;48.896;13.342;2022-07-29T15:58:28;1.50;;;1.08;;
39612;SDS011;25303;48.896;13.342;2022-07-29T16:01:11;1.42;;;1.20;;
39612;SDS011;25303;48.896;13.342;2022-07-29T16:03:54;1.45;;;1.10;;
39612;SDS011;25303;48.896;13.342;2022-07-29T16:06:37;1.63;;;1.13;;
39612;SDS011;25303;48.896;13.342;2022-07-29T16:09:21;1.63;;;1.10;;
39612;SDS011;25303;48.896;13.342;2022-07-29T16:14:56;1.50;;;1.05;;
39612;SDS011;25303;48.896;13.342;2022-07-29T16:17:39;2.53;;;1.20;;
39612;SDS011;25303;48.896;13.342;2022-07-29T16:20:22;3.42;;;1.17;;
39612;SDS011;25303;48.896;13.342;2022-07-29T16:23:05;2.38;;;1.60;;
39612;SDS011;25303;48.896;13.342;2022-07-29T16:25:51;1.88;;;1.40;;
39612;SDS011;25303;48.896;13.342;2022-07-29T16:28:42;3.33;;;1.40;;
39612;SDS011;25303;48.896;13.342;2022-07-29T16:31:27;2.35;;;1.50;;
39612;SDS011;25303;48.896;13.342;2022-07-29T16:34:10;1.60;;;1.35;;
39612;SDS011;25303;48.896;13.342;2022-07-29T16:36:53;2.58;;;1.25;;
39612;SDS011;25303;48.896;13.342;2022-07-29T16:39:36;2.95;;;1.30;;
39612;SDS011;25303;48.896;13.342;2022-07-29T16:42:20;1.70;;;1.17;;
39612;SDS011;25303;48.896;13.342;2022-07-29T16:45:23;2.20;;;1.60;;
39612;SDS011;25303;48.896;13.342;2022-07-29T16:48:11;1.88;;;1.52;;
39612;SDS011;25303;48.896;13.342;2022-07-29T16:50:54;3.08;;;1.50;;
39612;SDS011;25303;48.896;13.342;2022-07-29T16:53:37;2.65;;;1.58;;
39612;SDS011;25303;48.896;13.342;2022-07-29T16:56:20;1.98;;;1.52;;
39612;SDS011;25303;48.896;13.342;2022-07-29T16:59:05;1.38;;;1.23;;
39612;SDS011;25303;48.896;13.342;2022-07-29T17:01:48;1.42;;;1.27;;
39612;SDS011;25303;48.896;13.342;2022-07-29T17:04:31;2.10;;;1.42;;